sensor_id;sensor_type;location;lat;lon;timestamp;temperature;humidity
65378;SHT31;51982;51.042;13.806;2023-09-30T00:01:28;22.84;75.40
65378;SHT31;51982;51.042;13.806;2023-09-30T00:03:54;22.77;75.56
65378;SHT31;51982;51.042;13.806;2023-09-30T00:06:19;22.78;75.49
65378;SHT31;51982;51.042;13.806;2023-09-30T00:08:44;22.78;75.55
65378;SHT31;51982;51.042;13.806;2023-09-30T00:11:10;22.76;75.53
65378;SHT31;51982;51.042;13.806;2023-09-30T00:13:36;22.74;75.63
65378;SHT31;51982;51.042;13.806;2023-09-30T00:16:01;22.73;75.75
65378;SHT31;51982;51.042;13.806;2023-09-30T00:18:26;22.71;75.85
65378;SHT31;51982;51.042;13.806;2023-09-30T00:20:52;22.64;76.16
65378;SHT31;51982;51.042;13.806;2023-09-30T00:23:18;22.61;76.29
65378;SHT31;51982;51.042;13.806;2023-09-30T00:25:46;22.57;76.49
65378;SHT31;51982;51.042;13.806;2023-09-30T00:28:11;22.57;76.52
65378;SHT31;51982;51.042;13.806;2023-09-30T00:30:37;22.56;76.55
65378;SHT31;51982;51.042;13.806;2023-09-30T00:33:03;22.52;76.80
65378;SHT31;51982;51.042;13.806;2023-09-30T00:35:32;22.46;77.13
65378;SHT31;51982;51.042;13.806;2023-09-30T00:37:57;22.43;77.32
65378;SHT31;51982;51.042;13.806;2023-09-30T00:40:22;22.42;77.52
65378;SHT31;51982;51.042;13.806;2023-09-30T00:42:47;22.40;77.85
65378;SHT31;51982;51.042;13.806;2023-09-30T00:45:13;22.36;78.03
65378;SHT31;51982;51.042;13.806;2023-09-30T00:47:38;22.32;78.34
65378;SHT31;51982;51.042;13.806;2023-09-30T00:50:05;22.29;78.51
65378;SHT31;51982;51.042;13.806;2023-09-30T00:52:33;22.29;78.55
65378;SHT31;51982;51.042;13.806;2023-09-30T00:54:58;22.23;78.72
65378;SHT31;51982;51.042;13.806;2023-09-30T00:57:25;22.26;78.69
65378;SHT31;51982;51.042;13.806;2023-09-30T00:59:51;22.26;78.75
65378;SHT31;51982;51.042;13.806;2023-09-30T01:02:18;22.25;78.90
65378;SHT31;51982;51.042;13.806;2023-09-30T01:04:43;22.20;79.02
65378;SHT31;51982;51.042;13.806;2023-09-30T01:07:09;22.16;79.13
65378;SHT31;51982;51.042;13.806;2023-09-30T01:09:34;22.02;79.68
65378;SHT31;51982;51.042;13.806;2023-09-30T01:12:01;22.06;79.44
65378;SHT31;51982;51.042;13.806;2023-09-30T01:14:29;22.06;79.40
65378;SHT31;51982;51.042;13.806;2023-09-30T01:16:54;22.01;79.40
65378;SHT31;51982;51.042;13.806;2023-09-30T01:19:20;21.81;79.57
65378;SHT31;51982;51.042;13.806;2023-09-30T01:21:45;21.41;79.73
65378;SHT31;51982;51.042;13.806;2023-09-30T01:24:14;21.52;79.72
65378;SHT31;51982;51.042;13.806;2023-09-30T01:26:39;21.38;79.86
65378;SHT31;51982;51.042;13.806;2023-09-30T01:29:05;21.43;79.78
65378;SHT31;51982;51.042;13.806;2023-09-30T01:31:30;21.34;79.81
65378;SHT31;51982;51.042;13.806;2023-09-30T01:33:55;21.07;80.04
65378;SHT31;51982;51.042;13.806;2023-09-30T01:36:21;20.99;80.15
65378;SHT31;51982;51.042;13.806;2023-09-30T01:38:46;20.96;80.14
65378;SHT31;51982;51.042;13.806;2023-09-30T01:41:11;20.80;80.07
65378;SHT31;51982;51.042;13.806;2023-09-30T01:43:36;20.86;80.24
65378;SHT31;51982;51.042;13.806;2023-09-30T01:46:02;20.84;80.12
65378;SHT31;51982;51.042;13.806;2023-09-30T01:48:35;20.80;79.87
65378;SHT31;51982;51.042;13.806;2023-09-30T01:51:24;20.87;79.76
65378;SHT31;51982;51.042;13.806;2023-09-30T01:53:50;20.92;79.48
65378;SHT31;51982;51.042;13.806;2023-09-30T01:56:15;20.86;79.51
65378;SHT31;51982;51.042;13.806;2023-09-30T01:58:41;20.90;79.41
65378;SHT31;51982;51.042;13.806;2023-09-30T02:01:06;20.87;79.48
65378;SHT31;51982;51.042;13.806;2023-09-30T02:03:32;20.62;79.58
65378;SHT31;51982;51.042;13.806;2023-09-30T02:05:57;20.50;79.95
65378;SHT31;51982;51.042;13.806;2023-09-30T02:08:23;20.57;79.75
65378;SHT31;51982;51.042;13.806;2023-09-30T02:10:48;20.50;79.97
65378;SHT31;51982;51.042;13.806;2023-09-30T02:13:13;20.60;79.79
65378;SHT31;51982;51.042;13.806;2023-09-30T02:15:42;20.52;80.04
65378;SHT31;51982;51.042;13.806;2023-09-30T02:18:08;20.53;80.36
65378;SHT31;51982;51.042;13.806;2023-09-30T02:20:34;20.63;80.43
65378;SHT31;51982;51.042;13.806;2023-09-30T02:22:59;20.68;80.50
65378;SHT31;51982;51.042;13.806;2023-09-30T02:25:27;20.59;80.62
65378;SHT31;51982;51.042;13.806;2023-09-30T02:27:52;20.49;80.89
65378;SHT31;51982;51.042;13.806;2023-09-30T02:30:17;20.45;81.07
65378;SHT31;51982;51.042;13.806;2023-09-30T02:32:43;20.45;80.97
65378;SHT31;51982;51.042;13.806;2023-09-30T02:35:11;20.52;80.80
65378;SHT31;51982;51.042;13.806;2023-09-30T02:37:37;20.48;80.87
65378;SHT31;51982;51.042;13.806;2023-09-30T02:40:06;20.53;80.87
65378;SHT31;51982;51.042;13.806;2023-09-30T02:42:35;20.38;80.71
65378;SHT31;51982;51.042;13.806;2023-09-30T02:45:02;20.38;79.82
65378;SHT31;51982;51.042;13.806;2023-09-30T02:47:28;20.35;79.56
65378;SHT31;51982;51.042;13.806;2023-09-30T02:49:54;20.43;79.36
65378;SHT31;51982;51.042;13.806;2023-09-30T02:52:19;20.38;78.76
65378;SHT31;51982;51.042;13.806;2023-09-30T02:54:46;20.45;78.37
65378;SHT31;51982;51.042;13.806;2023-09-30T02:57:11;20.40;78.03
65378;SHT31;51982;51.042;13.806;2023-09-30T02:59:36;20.39;77.92
65378;SHT31;51982;51.042;13.806;2023-09-30T03:02:02;20.49;77.87
65378;SHT31;51982;51.042;13.806;2023-09-30T03:04:28;20.40;77.77
65378;SHT31;51982;51.042;13.806;2023-09-30T03:06:53;20.29;77.68
65378;SHT31;51982;51.042;13.806;2023-09-30T03:09:21;20.40;77.86
65378;SHT31;51982;51.042;13.806;2023-09-30T03:11:47;20.29;78.03
65378;SHT31;51982;51.042;13.806;2023-09-30T03:14:13;20.24;77.89
65378;SHT31;51982;51.042;13.806;2023-09-30T03:16:39;20.17;77.56
65378;SHT31;51982;51.042;13.806;2023-09-30T03:19:05;19.99;77.18
65378;SHT31;51982;51.042;13.806;2023-09-30T03:21:30;20.01;76.99
65378;SHT31;51982;51.042;13.806;2023-09-30T03:23:56;19.94;76.76
65378;SHT31;51982;51.042;13.806;2023-09-30T03:26:22;19.85;76.25
65378;SHT31;51982;51.042;13.806;2023-09-30T03:28:47;19.89;75.60
65378;SHT31;51982;51.042;13.806;2023-09-30T03:31:12;19.91;75.12
65378;SHT31;51982;51.042;13.806;2023-09-30T03:33:37;19.87;74.58
65378;SHT31;51982;51.042;13.806;2023-09-30T03:36:03;19.64;74.22
65378;SHT31;51982;51.042;13.806;2023-09-30T03:38:28;19.66;73.93
65378;SHT31;51982;51.042;13.806;2023-09-30T03:40:54;19.33;73.71
65378;SHT31;51982;51.042;13.806;2023-09-30T03:43:23;19.61;74.15
65378;SHT31;51982;51.042;13.806;2023-09-30T03:45:49;19.70;74.02
65378;SHT31;51982;51.042;13.806;2023-09-30T03:48:15;19.78;73.84
65378;SHT31;51982;51.042;13.806;2023-09-30T03:50:40;19.88;73.70
65378;SHT31;51982;51.042;13.806;2023-09-30T03:53:06;19.78;73.65
65378;SHT31;51982;51.042;13.806;2023-09-30T03:55:32;19.75;73.56
65378;SHT31;51982;51.042;13.806;2023-09-30T03:57:58;19.68;73.70
65378;SHT31;51982;51.042;13.806;2023-09-30T04:00:23;19.68;73.50
65378;SHT31;51982;51.042;13.806;2023-09-30T04:02:49;19.54;73.77
65378;SHT31;51982;51.042;13.806;2023-09-30T04:05:17;19.60;73.68
65378;SHT31;51982;51.042;13.806;2023-09-30T04:07:43;19.51;73.77
65378;SHT31;51982;51.042;13.806;2023-09-30T04:10:09;19.60;73.64
65378;SHT31;51982;51.042;13.806;2023-09-30T04:12:35;19.40;73.98
65378;SHT31;51982;51.042;13.806;2023-09-30T04:15:00;19.49;73.83
65378;SHT31;51982;51.042;13.806;2023-09-30T04:17:26;19.43;73.83
65378;SHT31;51982;51.042;13.806;2023-09-30T04:19:52;19.49;73.89
65378;SHT31;51982;51.042;13.806;2023-09-30T04:22:18;19.49;73.76
65378;SHT31;51982;51.042;13.806;2023-09-30T04:24:46;19.45;74.06
65378;SHT31;51982;51.042;13.806;2023-09-30T04:27:12;19.43;74.04
65378;SHT31;51982;51.042;13.806;2023-09-30T04:29:37;19.38;74.08
65378;SHT31;51982;51.042;13.806;2023-09-30T04:32:03;19.26;74.44
65378;SHT31;51982;51.042;13.806;2023-09-30T04:34:29;19.22;74.47
65378;SHT31;51982;51.042;13.806;2023-09-30T04:36:55;19.28;74.44
65378;SHT31;51982;51.042;13.806;2023-09-30T04:39:21;19.30;74.46
65378;SHT31;51982;51.042;13.806;2023-09-30T04:41:46;19.12;74.86
65378;SHT31;51982;51.042;13.806;2023-09-30T04:44:12;19.13;74.89
65378;SHT31;51982;51.042;13.806;2023-09-30T04:46:37;19.20;74.78
65378;SHT31;51982;51.042;13.806;2023-09-30T04:49:08;19.19;74.80
65378;SHT31;51982;51.042;13.806;2023-09-30T04:51:34;19.15;74.83
65378;SHT31;51982;51.042;13.806;2023-09-30T04:53:59;19.00;75.06
65378;SHT31;51982;51.042;13.806;2023-09-30T04:56:25;19.05;75.08
65378;SHT31;51982;51.042;13.806;2023-09-30T04:58:50;19.07;75.03
65378;SHT31;51982;51.042;13.806;2023-09-30T05:01:16;19.02;75.02
65378;SHT31;51982;51.042;13.806;2023-09-30T05:03:44;19.02;75.08
65378;SHT31;51982;51.042;13.806;2023-09-30T05:06:09;19.00;75.07
65378;SHT31;51982;51.042;13.806;2023-09-30T05:08:34;19.02;75.08
65378;SHT31;51982;51.042;13.806;2023-09-30T05:11:00;18.93;75.24
65378;SHT31;51982;51.042;13.806;2023-09-30T05:13:25;18.92;75.30
65378;SHT31;51982;51.042;13.806;2023-09-30T05:15:51;18.98;75.27
65378;SHT31;51982;51.042;13.806;2023-09-30T05:18:17;18.95;75.37
65378;SHT31;51982;51.042;13.806;2023-09-30T05:20:42;18.82;75.64
65378;SHT31;51982;51.042;13.806;2023-09-30T05:23:09;18.91;75.55
65378;SHT31;51982;51.042;13.806;2023-09-30T05:25:37;18.91;75.58
65378;SHT31;51982;51.042;13.806;2023-09-30T05:28:03;18.86;75.67
65378;SHT31;51982;51.042;13.806;2023-09-30T05:30:29;18.93;75.61
65378;SHT31;51982;51.042;13.806;2023-09-30T05:32:55;18.79;75.87
65378;SHT31;51982;51.042;13.806;2023-09-30T05:35:20;18.86;75.82
65378;SHT31;51982;51.042;13.806;2023-09-30T05:37:47;18.86;75.86
65378;SHT31;51982;51.042;13.806;2023-09-30T05:40:13;18.79;75.97
65378;SHT31;51982;51.042;13.806;2023-09-30T05:42:46;18.88;75.95
65378;SHT31;51982;51.042;13.806;2023-09-30T05:45:12;18.84;75.96
65378;SHT31;51982;51.042;13.806;2023-09-30T05:47:40;18.73;76.16
65378;SHT31;51982;51.042;13.806;2023-09-30T05:50:07;18.88;76.02
65378;SHT31;51982;51.042;13.806;2023-09-30T05:52:33;18.96;75.87
65378;SHT31;51982;51.042;13.806;2023-09-30T05:54:58;18.91;75.98
65378;SHT31;51982;51.042;13.806;2023-09-30T05:57:26;18.84;76.18
65378;SHT31;51982;51.042;13.806;2023-09-30T05:59:51;18.88;76.19
65378;SHT31;51982;51.042;13.806;2023-09-30T06:02:17;18.88;76.30
65378;SHT31;51982;51.042;13.806;2023-09-30T06:04:42;18.86;76.41
65378;SHT31;51982;51.042;13.806;2023-09-30T06:07:07;18.82;76.56
65378;SHT31;51982;51.042;13.806;2023-09-30T06:09:33;18.79;76.75
65378;SHT31;51982;51.042;13.806;2023-09-30T06:11:58;18.86;76.70
65378;SHT31;51982;51.042;13.806;2023-09-30T06:14:24;18.89;76.82
65378;SHT31;51982;51.042;13.806;2023-09-30T06:16:52;18.85;76.97
65378;SHT31;51982;51.042;13.806;2023-09-30T06:19:18;18.82;77.08
65378;SHT31;51982;51.042;13.806;2023-09-30T06:21:43;18.76;77.22
65378;SHT31;51982;51.042;13.806;2023-09-30T06:24:08;18.73;77.41
65378;SHT31;51982;51.042;13.806;2023-09-30T06:26:34;18.76;77.33
65378;SHT31;51982;51.042;13.806;2023-09-30T06:28:59;18.84;77.35
65378;SHT31;51982;51.042;13.806;2023-09-30T06:31:25;18.81;77.36
65378;SHT31;51982;51.042;13.806;2023-09-30T06:33:52;18.84;77.44
65378;SHT31;51982;51.042;13.806;2023-09-30T06:36:17;18.79;77.49
65378;SHT31;51982;51.042;13.806;2023-09-30T06:38:43;18.76;77.54
65378;SHT31;51982;51.042;13.806;2023-09-30T06:41:15;18.71;77.48
65378;SHT31;51982;51.042;13.806;2023-09-30T06:43:40;18.66;77.77
65378;SHT31;51982;51.042;13.806;2023-09-30T06:46:06;18.64;77.86
65378;SHT31;51982;51.042;13.806;2023-09-30T06:48:34;18.65;77.87
65378;SHT31;51982;51.042;13.806;2023-09-30T06:51:00;18.73;77.76
65378;SHT31;51982;51.042;13.806;2023-09-30T06:53:25;18.79;77.79
65378;SHT31;51982;51.042;13.806;2023-09-30T06:55:50;18.75;77.76
65378;SHT31;51982;51.042;13.806;2023-09-30T06:58:18;18.81;77.78
65378;SHT31;51982;51.042;13.806;2023-09-30T07:00:51;18.84;77.57
65378;SHT31;51982;51.042;13.806;2023-09-30T07:03:17;18.81;77.58
65378;SHT31;51982;51.042;13.806;2023-09-30T07:05:44;18.77;77.55
65378;SHT31;51982;51.042;13.806;2023-09-30T07:08:10;18.85;77.48
65378;SHT31;51982;51.042;13.806;2023-09-30T07:10:35;18.84;77.51
65378;SHT31;51982;51.042;13.806;2023-09-30T07:13:04;18.75;77.53
65378;SHT31;51982;51.042;13.806;2023-09-30T07:15:29;18.75;77.49
65378;SHT31;51982;51.042;13.806;2023-09-30T07:17:55;18.72;77.51
65378;SHT31;51982;51.042;13.806;2023-09-30T07:20:21;18.79;77.51
65378;SHT31;51982;51.042;13.806;2023-09-30T07:22:47;18.79;77.40
65378;SHT31;51982;51.042;13.806;2023-09-30T07:25:13;18.68;77.62
65378;SHT31;51982;51.042;13.806;2023-09-30T07:27:41;18.65;77.68
65378;SHT31;51982;51.042;13.806;2023-09-30T07:30:07;18.76;77.56
65378;SHT31;51982;51.042;13.806;2023-09-30T07:32:32;18.77;77.39
65378;SHT31;51982;51.042;13.806;2023-09-30T07:34:57;18.77;77.24
65378;SHT31;51982;51.042;13.806;2023-09-30T07:37:23;18.86;77.17
65378;SHT31;51982;51.042;13.806;2023-09-30T07:39:48;18.91;76.97
65378;SHT31;51982;51.042;13.806;2023-09-30T07:42:13;18.88;76.83
65378;SHT31;51982;51.042;13.806;2023-09-30T07:44:39;18.95;76.66
65378;SHT31;51982;51.042;13.806;2023-09-30T07:47:04;18.99;76.50
65378;SHT31;51982;51.042;13.806;2023-09-30T07:49:31;19.06;76.42
65378;SHT31;51982;51.042;13.806;2023-09-30T07:51:57;19.05;76.30
65378;SHT31;51982;51.042;13.806;2023-09-30T07:54:22;19.02;76.18
65378;SHT31;51982;51.042;13.806;2023-09-30T07:56:48;19.12;76.02
65378;SHT31;51982;51.042;13.806;2023-09-30T07:59:14;19.19;75.70
65378;SHT31;51982;51.042;13.806;2023-09-30T08:01:41;19.28;75.53
65378;SHT31;51982;51.042;13.806;2023-09-30T08:04:06;19.31;75.59
65378;SHT31;51982;51.042;13.806;2023-09-30T08:06:31;19.34;75.47
65378;SHT31;51982;51.042;13.806;2023-09-30T08:08:57;19.40;75.42
65378;SHT31;51982;51.042;13.806;2023-09-30T08:11:22;19.43;75.39
65378;SHT31;51982;51.042;13.806;2023-09-30T08:13:48;19.45;75.40
65378;SHT31;51982;51.042;13.806;2023-09-30T08:16:13;19.46;75.25
65378;SHT31;51982;51.042;13.806;2023-09-30T08:18:38;19.43;75.08
65378;SHT31;51982;51.042;13.806;2023-09-30T08:21:04;19.41;74.67
65378;SHT31;51982;51.042;13.806;2023-09-30T08:23:30;19.36;74.31
65378;SHT31;51982;51.042;13.806;2023-09-30T08:25:58;19.43;74.36
65378;SHT31;51982;51.042;13.806;2023-09-30T08:28:23;19.49;74.05
65378;SHT31;51982;51.042;13.806;2023-09-30T08:30:49;19.45;74.05
65378;SHT31;51982;51.042;13.806;2023-09-30T08:33:16;19.45;73.87
65378;SHT31;51982;51.042;13.806;2023-09-30T08:35:41;19.26;73.68
65378;SHT31;51982;51.042;13.806;2023-09-30T08:38:06;19.36;73.69
65378;SHT31;51982;51.042;13.806;2023-09-30T08:40:32;19.50;73.47
65378;SHT31;51982;51.042;13.806;2023-09-30T08:42:57;19.60;73.29
65378;SHT31;51982;51.042;13.806;2023-09-30T08:45:23;19.73;73.40
65378;SHT31;51982;51.042;13.806;2023-09-30T08:47:48;19.77;73.29
65378;SHT31;51982;51.042;13.806;2023-09-30T08:50:15;19.75;73.16
65378;SHT31;51982;51.042;13.806;2023-09-30T08:52:41;19.79;72.81
65378;SHT31;51982;51.042;13.806;2023-09-30T08:55:08;19.74;72.54
65378;SHT31;51982;51.042;13.806;2023-09-30T08:57:39;19.81;72.57
65378;SHT31;51982;51.042;13.806;2023-09-30T09:00:06;19.89;72.59
65378;SHT31;51982;51.042;13.806;2023-09-30T09:02:34;19.87;72.31
65378;SHT31;51982;51.042;13.806;2023-09-30T09:05:01;19.79;72.07
65378;SHT31;51982;51.042;13.806;2023-09-30T09:07:26;19.94;72.18
65378;SHT31;51982;51.042;13.806;2023-09-30T09:10:04;19.89;71.54
65378;SHT31;51982;51.042;13.806;2023-09-30T09:12:31;19.92;71.62
65378;SHT31;51982;51.042;13.806;2023-09-30T09:14:56;19.91;71.39
65378;SHT31;51982;51.042;13.806;2023-09-30T09:17:21;19.78;70.73
65378;SHT31;51982;51.042;13.806;2023-09-30T09:20:00;19.84;70.34
65378;SHT31;51982;51.042;13.806;2023-09-30T09:22:40;19.92;70.74
65378;SHT31;51982;51.042;13.806;2023-09-30T09:25:06;19.95;71.13
65378;SHT31;51982;51.042;13.806;2023-09-30T09:27:36;19.95;71.03
65378;SHT31;51982;51.042;13.806;2023-09-30T09:30:27;19.97;70.43
65378;SHT31;51982;51.042;13.806;2023-09-30T09:33:05;20.02;70.80
65378;SHT31;51982;51.042;13.806;2023-09-30T09:35:34;20.02;70.99
65378;SHT31;51982;51.042;13.806;2023-09-30T09:38:03;19.94;70.68
65378;SHT31;51982;51.042;13.806;2023-09-30T09:40:31;19.94;70.89
65378;SHT31;51982;51.042;13.806;2023-09-30T09:42:58;19.85;70.96
65378;SHT31;51982;51.042;13.806;2023-09-30T09:45:27;19.88;71.11
65378;SHT31;51982;51.042;13.806;2023-09-30T09:47:54;19.98;71.03
65378;SHT31;51982;51.042;13.806;2023-09-30T09:50:21;19.97;70.86
65378;SHT31;51982;51.042;13.806;2023-09-30T09:52:48;19.84;70.58
65378;SHT31;51982;51.042;13.806;2023-09-30T09:55:16;19.88;70.80
65378;SHT31;51982;51.042;13.806;2023-09-30T09:57:43;19.99;70.77
65378;SHT31;51982;51.042;13.806;2023-09-30T10:00:11;20.11;70.84
65378;SHT31;51982;51.042;13.806;2023-09-30T10:02:40;20.07;70.29
65378;SHT31;51982;51.042;13.806;2023-09-30T10:05:05;19.92;69.96
65378;SHT31;51982;51.042;13.806;2023-09-30T10:07:36;19.91;70.24
65378;SHT31;51982;51.042;13.806;2023-09-30T10:10:07;20.01;70.52
65378;SHT31;51982;51.042;13.806;2023-09-30T10:12:37;20.07;70.60
65378;SHT31;51982;51.042;13.806;2023-09-30T10:18:08;19.91;70.25
65378;SHT31;51982;51.042;13.806;2023-09-30T10:20:41;19.85;69.68
65378;SHT31;51982;51.042;13.806;2023-09-30T10:23:25;19.74;69.17
65378;SHT31;51982;51.042;13.806;2023-09-30T10:26:14;19.74;68.04
65378;SHT31;51982;51.042;13.806;2023-09-30T10:28:42;19.84;68.83
65378;SHT31;51982;51.042;13.806;2023-09-30T10:31:16;19.84;69.16
65378;SHT31;51982;51.042;13.806;2023-09-30T10:36:36;19.74;68.55
65378;SHT31;51982;51.042;13.806;2023-09-30T10:39:03;19.81;68.60
65378;SHT31;51982;51.042;13.806;2023-09-30T10:46:50;19.92;67.41
65378;SHT31;51982;51.042;13.806;2023-09-30T10:49:17;20.07;67.93
65378;SHT31;51982;51.042;13.806;2023-09-30T10:51:45;20.09;67.69
65378;SHT31;51982;51.042;13.806;2023-09-30T10:54:12;20.18;68.10
65378;SHT31;51982;51.042;13.806;2023-09-30T10:56:38;20.32;67.88
65378;SHT31;51982;51.042;13.806;2023-09-30T10:59:03;20.35;67.77
65378;SHT31;51982;51.042;13.806;2023-09-30T11:01:36;20.30;67.58
65378;SHT31;51982;51.042;13.806;2023-09-30T11:04:03;20.32;67.46
65378;SHT31;51982;51.042;13.806;2023-09-30T11:06:29;20.38;67.49
65378;SHT31;51982;51.042;13.806;2023-09-30T11:08:59;20.40;67.44
65378;SHT31;51982;51.042;13.806;2023-09-30T11:14:00;20.55;67.59
65378;SHT31;51982;51.042;13.806;2023-09-30T11:16:25;20.45;67.38
65378;SHT31;51982;51.042;13.806;2023-09-30T11:18:54;20.46;67.42
65378;SHT31;51982;51.042;13.806;2023-09-30T11:21:21;20.48;67.26
65378;SHT31;51982;51.042;13.806;2023-09-30T11:23:47;20.48;66.81
65378;SHT31;51982;51.042;13.806;2023-09-30T11:26:12;20.59;66.82
65378;SHT31;51982;51.042;13.806;2023-09-30T11:28:44;20.68;66.81
65378;SHT31;51982;51.042;13.806;2023-09-30T11:31:13;20.75;66.09
65378;SHT31;51982;51.042;13.806;2023-09-30T11:33:53;20.77;65.71
65378;SHT31;51982;51.042;13.806;2023-09-30T11:36:20;20.79;66.04
65378;SHT31;51982;51.042;13.806;2023-09-30T11:38:47;20.80;66.09
65378;SHT31;51982;51.042;13.806;2023-09-30T11:41:13;20.83;66.36
65378;SHT31;51982;51.042;13.806;2023-09-30T11:43:39;20.84;66.09
65378;SHT31;51982;51.042;13.806;2023-09-30T11:48:31;20.73;65.76
65378;SHT31;51982;51.042;13.806;2023-09-30T11:50:58;20.69;66.34
65378;SHT31;51982;51.042;13.806;2023-09-30T11:53:25;20.52;66.31
65378;SHT31;51982;51.042;13.806;2023-09-30T11:55:50;20.43;65.73
65378;SHT31;51982;51.042;13.806;2023-09-30T11:58:20;20.57;65.87
65378;SHT31;51982;51.042;13.806;2023-09-30T12:00:45;20.66;65.55
65378;SHT31;51982;51.042;13.806;2023-09-30T12:03:10;20.72;65.39
65378;SHT31;51982;51.042;13.806;2023-09-30T12:05:35;20.79;65.56
65378;SHT31;51982;51.042;13.806;2023-09-30T12:08:02;20.82;65.75
65378;SHT31;51982;51.042;13.806;2023-09-30T12:10:27;20.79;65.12
65378;SHT31;51982;51.042;13.806;2023-09-30T12:12:53;20.76;65.20
65378;SHT31;51982;51.042;13.806;2023-09-30T12:15:18;20.68;65.31
65378;SHT31;51982;51.042;13.806;2023-09-30T12:17:45;20.60;65.57
65378;SHT31;51982;51.042;13.806;2023-09-30T12:20:10;20.60;65.73
65378;SHT31;51982;51.042;13.806;2023-09-30T12:22:35;20.68;65.94
65378;SHT31;51982;51.042;13.806;2023-09-30T12:25:02;20.60;65.18
65378;SHT31;51982;51.042;13.806;2023-09-30T12:27:28;20.50;64.88
65378;SHT31;51982;51.042;13.806;2023-09-30T12:29:53;20.48;65.03
65378;SHT31;51982;51.042;13.806;2023-09-30T12:32:18;20.46;64.99
65378;SHT31;51982;51.042;13.806;2023-09-30T12:34:43;20.45;65.00
65378;SHT31;51982;51.042;13.806;2023-09-30T12:37:09;20.53;64.70
65378;SHT31;51982;51.042;13.806;2023-09-30T12:39:34;20.48;64.57
65378;SHT31;51982;51.042;13.806;2023-09-30T12:42:01;20.56;65.16
65378;SHT31;51982;51.042;13.806;2023-09-30T12:44:27;20.55;65.10
65378;SHT31;51982;51.042;13.806;2023-09-30T12:46:52;20.53;65.14
65378;SHT31;51982;51.042;13.806;2023-09-30T12:49:17;20.59;65.01
65378;SHT31;51982;51.042;13.806;2023-09-30T12:51:43;20.59;64.73
65378;SHT31;51982;51.042;13.806;2023-09-30T12:54:08;20.66;64.63
65378;SHT31;51982;51.042;13.806;2023-09-30T12:56:35;20.70;64.55
65378;SHT31;51982;51.042;13.806;2023-09-30T12:59:01;20.79;64.50
65378;SHT31;51982;51.042;13.806;2023-09-30T13:01:26;20.84;64.53
65378;SHT31;51982;51.042;13.806;2023-09-30T13:03:53;20.86;64.35
65378;SHT31;51982;51.042;13.806;2023-09-30T13:06:19;20.87;63.96
65378;SHT31;51982;51.042;13.806;2023-09-30T13:08:45;20.90;64.28
65378;SHT31;51982;51.042;13.806;2023-09-30T13:11:10;20.84;64.01
65378;SHT31;51982;51.042;13.806;2023-09-30T13:13:38;20.84;64.08
65378;SHT31;51982;51.042;13.806;2023-09-30T13:16:04;20.86;64.12
65378;SHT31;51982;51.042;13.806;2023-09-30T13:18:33;20.86;63.85
65378;SHT31;51982;51.042;13.806;2023-09-30T13:20:59;20.84;63.80
65378;SHT31;51982;51.042;13.806;2023-09-30T13:23:24;20.86;63.68
65378;SHT31;51982;51.042;13.806;2023-09-30T13:25:50;20.87;63.68
65378;SHT31;51982;51.042;13.806;2023-09-30T13:28:15;20.87;62.95
65378;SHT31;51982;51.042;13.806;2023-09-30T13:30:40;20.86;62.74
65378;SHT31;51982;51.042;13.806;2023-09-30T13:33:05;20.87;62.43
65378;SHT31;51982;51.042;13.806;2023-09-30T13:35:31;20.89;62.74
65378;SHT31;51982;51.042;13.806;2023-09-30T13:37:57;20.84;62.69
65378;SHT31;51982;51.042;13.806;2023-09-30T13:40:22;20.87;63.01
65378;SHT31;51982;51.042;13.806;2023-09-30T13:42:47;20.89;62.83
65378;SHT31;51982;51.042;13.806;2023-09-30T13:45:12;20.93;62.98
65378;SHT31;51982;51.042;13.806;2023-09-30T13:47:38;20.93;63.18
65378;SHT31;51982;51.042;13.806;2023-09-30T13:50:03;20.90;63.08
65378;SHT31;51982;51.042;13.806;2023-09-30T13:52:29;20.89;62.97
65378;SHT31;51982;51.042;13.806;2023-09-30T13:54:54;20.90;63.34
65378;SHT31;51982;51.042;13.806;2023-09-30T13:57:20;20.93;63.18
65378;SHT31;51982;51.042;13.806;2023-09-30T13:59:46;20.92;62.96
65378;SHT31;51982;51.042;13.806;2023-09-30T14:02:11;20.94;63.10
65378;SHT31;51982;51.042;13.806;2023-09-30T14:04:37;20.97;63.04
65378;SHT31;51982;51.042;13.806;2023-09-30T14:07:03;20.96;62.83
65378;SHT31;51982;51.042;13.806;2023-09-30T14:09:28;20.97;62.81
65378;SHT31;51982;51.042;13.806;2023-09-30T14:11:54;21.00;62.99
65378;SHT31;51982;51.042;13.806;2023-09-30T14:14:20;21.00;62.55
65378;SHT31;51982;51.042;13.806;2023-09-30T14:16:45;21.00;62.54
65378;SHT31;51982;51.042;13.806;2023-09-30T14:19:12;21.04;62.44
65378;SHT31;51982;51.042;13.806;2023-09-30T14:21:39;21.01;62.31
65378;SHT31;51982;51.042;13.806;2023-09-30T14:24:04;21.01;62.43
65378;SHT31;51982;51.042;13.806;2023-09-30T14:26:29;21.00;62.70
65378;SHT31;51982;51.042;13.806;2023-09-30T14:28:55;21.01;62.76
65378;SHT31;51982;51.042;13.806;2023-09-30T14:31:20;21.01;62.67
65378;SHT31;51982;51.042;13.806;2023-09-30T14:33:46;21.01;62.73
65378;SHT31;51982;51.042;13.806;2023-09-30T14:36:11;21.01;62.75
65378;SHT31;51982;51.042;13.806;2023-09-30T14:38:36;20.96;62.40
65378;SHT31;51982;51.042;13.806;2023-09-30T14:41:06;20.90;62.18
65378;SHT31;51982;51.042;13.806;2023-09-30T14:43:32;20.92;62.30
65378;SHT31;51982;51.042;13.806;2023-09-30T14:46:01;20.93;62.49
65378;SHT31;51982;51.042;13.806;2023-09-30T14:48:26;20.93;62.54
65378;SHT31;51982;51.042;13.806;2023-09-30T14:50:51;20.93;62.56
65378;SHT31;51982;51.042;13.806;2023-09-30T14:53:17;20.92;62.66
65378;SHT31;51982;51.042;13.806;2023-09-30T14:55:42;20.89;62.44
65378;SHT31;51982;51.042;13.806;2023-09-30T14:58:08;20.92;62.30
65378;SHT31;51982;51.042;13.806;2023-09-30T15:00:33;20.89;62.52
65378;SHT31;51982;51.042;13.806;2023-09-30T15:02:58;20.90;62.62
65378;SHT31;51982;51.042;13.806;2023-09-30T15:05:23;20.87;62.68
65378;SHT31;51982;51.042;13.806;2023-09-30T15:07:49;20.84;62.65
65378;SHT31;51982;51.042;13.806;2023-09-30T15:10:15;20.82;62.61
65378;SHT31;51982;51.042;13.806;2023-09-30T15:12:41;20.82;62.62
65378;SHT31;51982;51.042;13.806;2023-09-30T15:15:06;20.83;62.57
65378;SHT31;51982;51.042;13.806;2023-09-30T15:17:34;20.83;62.93
65378;SHT31;51982;51.042;13.806;2023-09-30T15:20:02;20.80;62.82
65378;SHT31;51982;51.042;13.806;2023-09-30T15:22:35;20.82;62.51
65378;SHT31;51982;51.042;13.806;2023-09-30T15:25:01;20.76;62.41
65378;SHT31;51982;51.042;13.806;2023-09-30T15:27:26;20.77;62.55